createdAt,value
2022-11-10T00:04:28.541Z,100930.81
2022-11-10T00:09:48.603Z,100928.50
2022-11-10T00:15:28.949Z,100931.88
2022-11-10T00:20:49.205Z,100944.72
2022-11-10T00:26:15.897Z,100943.03
2022-11-10T00:31:38.177Z,100952.09
2022-11-10T00:36:58.224Z,100958.41
2022-11-10T00:42:18.276Z,100970.00
2022-11-10T00:47:38.164Z,100976.97
2022-11-10T00:52:58.001Z,100986.22
2022-11-10T00:58:20.388Z,100992.13
2022-11-10T01:03:40.428Z,100999.94
2022-11-10T01:09:00.725Z,101005.56
2022-11-10T01:14:20.835Z,101018.63
2022-11-10T01:19:42.379Z,101022.16
2022-11-10T01:25:02.401Z,101020.66
2022-11-10T01:30:22.538Z,101019.75
2022-11-10T01:35:42.401Z,101031.47
2022-11-10T01:41:03.488Z,101048.19
2022-11-10T01:46:23.612Z,101049.38
2022-11-10T01:51:49.594Z,101057.44
2022-11-10T01:57:12.639Z,101051.91
2022-11-10T02:02:40.415Z,101048.63
2022-11-10T02:08:01.873Z,101057.84
2022-11-10T02:13:22.297Z,101067.03
2022-11-10T02:18:42.526Z,101071.19
2022-11-10T02:24:05.073Z,101082.44
2022-11-10T02:29:25.855Z,101086.78
2022-11-10T02:34:46.140Z,101091.72
2022-11-10T02:40:07.112Z,101092.69
2022-11-10T02:45:27.237Z,101082.09
2022-11-10T02:50:47.003Z,101086.81
2022-11-10T02:56:07.307Z,101082.06
2022-11-10T03:01:27.816Z,101101.50
2022-11-10T03:06:48.224Z,101107.19
2022-11-10T03:12:08.840Z,101123.72
2022-11-10T03:17:29.009Z,101126.75
2022-11-10T03:22:49.264Z,101131.81
2022-11-10T03:28:09.412Z,101139.44
2022-11-10T03:33:29.677Z,101140.28
2022-11-10T03:38:49.498Z,101131.63
2022-11-10T03:44:09.590Z,101147.63
2022-11-10T03:49:29.802Z,101149.75
2022-11-10T03:54:50.056Z,101155.91
2022-11-10T04:00:12.911Z,101173.00
2022-11-10T04:05:51.857Z,101187.84
2022-11-10T04:11:11.949Z,101201.84
2022-11-10T04:16:31.744Z,101224.03
2022-11-10T04:21:51.884Z,101223.75
2022-11-10T04:27:11.913Z,101231.28
2022-11-10T04:32:31.880Z,101242.94
2022-11-10T04:37:52.131Z,101254.22
2022-11-10T04:43:11.940Z,101264.09
2022-11-10T04:48:32.437Z,101257.34
2022-11-10T04:53:52.600Z,101280.66
2022-11-10T04:59:12.835Z,101278.66
2022-11-10T05:04:32.871Z,101284.13
2022-11-10T05:09:52.964Z,101292.22
2022-11-10T05:15:13.190Z,101291.06
2022-11-10T05:20:33.556Z,101296.78
2022-11-10T05:25:53.692Z,101307.88
2022-11-10T05:31:13.934Z,101299.59
2022-11-10T05:36:34.100Z,101285.31
2022-11-10T05:41:53.960Z,101298.47
2022-11-10T05:47:13.803Z,101322.25
2022-11-10T05:52:34.596Z,101332.69
2022-11-10T05:57:55.833Z,101340.75
2022-11-10T06:03:18.725Z,101355.34
2022-11-10T06:08:39.024Z,101365.13
2022-11-10T06:14:00.874Z,101380.16
2022-11-10T06:19:21.154Z,101391.06
2022-11-10T06:24:41.148Z,101410.47
2022-11-10T06:30:01.236Z,101435.59
2022-11-10T06:35:22.426Z,101441.47
2022-11-10T06:40:42.743Z,101454.44
2022-11-10T06:46:02.889Z,101478.75
2022-11-10T06:51:23.097Z,101474.06
2022-11-10T06:56:43.441Z,101477.00
2022-11-10T07:02:04.059Z,101491.88
2022-11-10T07:07:23.978Z,101518.06
2022-11-10T07:12:44.218Z,101514.78
2022-11-10T07:18:07.027Z,101531.72
2022-11-10T07:23:27.061Z,101559.13
2022-11-10T07:28:46.903Z,101558.50
2022-11-10T07:34:06.893Z,101582.41
2022-11-10T07:39:27.171Z,101598.09
2022-11-10T07:44:47.339Z,101610.28
2022-11-10T07:50:08.061Z,101624.59
2022-11-10T07:55:28.060Z,101633.56
2022-11-10T08:00:48.820Z,101652.78
2022-11-10T08:06:10.351Z,101660.91
2022-11-10T08:11:30.619Z,101676.63
2022-11-10T08:16:50.723Z,101689.72
2022-11-10T08:22:11.071Z,101707.97
2022-11-10T08:27:31.465Z,101729.44
2022-11-10T08:32:54.522Z,101749.72
2022-11-10T08:38:17.589Z,101751.84
2022-11-10T08:43:37.877Z,101762.94
2022-11-10T08:48:57.735Z,101755.25
2022-11-10T08:54:17.585Z,101759.78
2022-11-10T08:59:37.667Z,101762.81
2022-11-10T09:04:58.096Z,101772.34
2022-11-10T09:10:18.869Z,101770.06
2022-11-10T09:15:39.854Z,101777.13
2022-11-10T09:21:00.039Z,101775.28
2022-11-10T09:26:20.223Z,101784.78
2022-11-10T09:31:40.007Z,101795.00
2022-11-10T09:37:01.296Z,101802.50
2022-11-10T09:42:23.097Z,101820.31
2022-11-10T09:47:58.237Z,101825.44
2022-11-10T09:53:25.096Z,101859.34
2022-11-10T09:58:46.567Z,101861.41
2022-11-10T10:04:51.685Z,101881.22
2022-11-10T10:10:17.543Z,101891.47
2022-11-10T10:16:01.105Z,101888.13
2022-11-10T10:21:27.777Z,101881.47
2022-11-10T10:26:54.116Z,101878.16
2022-11-10T10:32:19.797Z,101880.06
2022-11-10T10:37:53.715Z,101872.28
2022-11-10T10:43:13.950Z,101863.03
2022-11-10T10:48:34.553Z,101863.69
2022-11-10T10:53:54.921Z,101858.84
2022-11-10T10:59:22.297Z,101821.84
2022-11-10T11:04:42.531Z,101812.34
2022-11-10T11:10:03.127Z,101784.22
2022-11-10T11:15:29.373Z,101749.28
2022-11-10T11:21:05.389Z,101688.13
2022-11-10T11:26:45.628Z,101659.97
2022-11-10T11:32:16.165Z,101621.66
2022-11-10T11:37:45.644Z,101597.75
2022-11-10T11:43:11.564Z,101590.56
2022-11-10T11:48:46.583Z,101580.19
2022-11-10T11:54:29.778Z,101580.41
2022-11-10T12:00:01.904Z,101574.66
2022-11-10T12:05:43.031Z,101558.75
2022-11-10T12:11:26.500Z,101557.50
2022-11-10T12:17:12.696Z,101546.72
2022-11-10T12:22:51.883Z,101563.84
2022-11-10T12:28:27.231Z,101564.28
2022-11-10T12:33:55.345Z,101571.06
2022-11-10T12:39:55.315Z,101585.03
2022-11-10T12:45:15.550Z,101586.31
2022-11-10T12:51:08.697Z,101573.22
2022-11-10T12:56:49.256Z,101568.13
2022-11-10T13:02:40.183Z,101566.00
2022-11-10T13:08:06.752Z,101565.38
2022-11-10T13:13:27.956Z,101588.69
2022-11-10T13:18:50.927Z,101593.56
2022-11-10T13:24:20.144Z,101604.56
2022-11-10T13:29:43.286Z,101611.94
2022-11-10T13:35:28.083Z,101619.34
2022-11-10T13:40:48.532Z,101631.00
2022-11-10T13:46:09.078Z,101632.94
2022-11-10T13:51:49.012Z,101625.94
2022-11-10T13:57:15.418Z,101642.25
2022-11-10T14:02:39.339Z,101657.47
2022-11-10T14:08:09.944Z,101651.78
2022-11-10T14:14:04.820Z,101644.34
2022-11-10T14:19:36.276Z,101628.31
2022-11-10T14:25:07.125Z,101616.25
2022-11-10T14:30:33.702Z,101627.66
2022-11-10T14:36:00.375Z,101640.97
2022-11-10T14:41:22.800Z,101659.13
2022-11-10T14:46:43.015Z,101641.13
2022-11-10T14:52:03.521Z,101628.00
2022-11-10T14:57:23.943Z,101620.81
2022-11-10T15:02:49.472Z,101603.88
2022-11-10T15:08:10.416Z,101601.09
2022-11-10T15:13:33.484Z,101603.00
2022-11-10T15:18:55.718Z,101604.88
2022-11-10T15:24:17.996Z,101607.38
2022-11-10T15:29:38.333Z,101600.13
2022-11-10T15:35:25.599Z,101592.47
2022-11-10T15:40:47.823Z,101599.34
2022-11-10T15:46:24.195Z,101581.88
2022-11-10T15:51:44.620Z,101572.53
2022-11-10T15:57:11.220Z,101569.31
2022-11-10T16:02:31.279Z,101560.97
2022-11-10T16:07:51.580Z,101568.44
2022-11-10T16:13:15.019Z,101566.78
2022-11-10T16:18:35.092Z,101581.31
2022-11-10T16:23:55.209Z,101586.72
2022-11-10T16:29:19.028Z,101582.41
2022-11-10T16:34:39.251Z,101588.41
2022-11-10T16:39:59.416Z,101593.78
2022-11-10T16:45:24.139Z,101601.28
2022-11-10T16:50:45.435Z,101599.69
2022-11-10T16:56:05.727Z,101598.22
2022-11-10T17:01:29.237Z,101600.88
2022-11-10T17:06:49.372Z,101607.22
2022-11-10T17:12:14.631Z,101629.25
2022-11-10T17:17:38.209Z,101628.63
2022-11-10T17:23:02.967Z,101641.25
2022-11-10T17:28:23.389Z,101644.84
2022-11-10T17:33:43.448Z,101665.00
2022-11-10T17:39:09.511Z,101661.78
2022-11-10T17:44:29.961Z,101669.63
2022-11-10T17:49:50.220Z,101682.91
2022-11-10T17:55:21.620Z,101688.03
2022-11-10T18:00:42.390Z,101691.44
2022-11-10T18:06:05.962Z,101692.44
2022-11-10T18:11:31.533Z,101704.53
2022-11-10T18:16:51.477Z,101708.63
2022-11-10T18:22:11.679Z,101707.94
2022-11-10T18:27:32.096Z,101716.06
2022-11-10T18:32:55.589Z,101714.16
2022-11-10T18:38:25.760Z,101713.81
2022-11-10T18:43:45.641Z,101713.13
2022-11-10T18:49:06.039Z,101729.53
2022-11-10T18:54:31.644Z,101724.09
2022-11-10T18:59:51.645Z,101728.50
2022-11-10T19:05:11.988Z,101725.94
2022-11-10T19:10:32.041Z,101723.09
2022-11-10T19:15:52.071Z,101737.00
2022-11-10T19:21:18.390Z,101742.41
2022-11-10T19:26:39.075Z,101733.19
2022-11-10T19:31:58.915Z,101747.09
2022-11-10T19:37:37.571Z,101742.31
2022-11-10T19:42:57.907Z,101739.69
2022-11-10T19:48:17.668Z,101743.38
2022-11-10T19:53:37.643Z,101739.13
2022-11-10T19:58:57.645Z,101753.53
2022-11-10T20:04:31.598Z,101741.78
2022-11-10T20:09:51.955Z,101758.53
2022-11-10T20:15:11.944Z,101780.72
2022-11-10T20:20:38.428Z,101793.69
2022-11-10T20:26:16.327Z,101798.88
2022-11-10T20:31:38.541Z,101806.94
2022-11-10T20:36:58.355Z,101824.94
2022-11-10T20:42:19.556Z,101816.88
2022-11-10T20:47:39.850Z,101822.75
2022-11-10T20:53:00.055Z,101832.97
2022-11-10T20:58:20.310Z,101837.34
2022-11-10T21:03:43.740Z,101837.00
2022-11-10T21:09:05.569Z,101837.13
2022-11-10T21:14:25.604Z,101830.81
2022-11-10T21:19:45.752Z,101837.34
2022-11-10T21:25:06.871Z,101817.69
2022-11-10T21:30:26.758Z,101805.44
2022-11-10T21:35:49.628Z,101793.19
2022-11-10T21:41:14.156Z,101793.09
2022-11-10T21:46:34.261Z,101801.28
2022-11-10T21:51:54.603Z,101800.88
2022-11-10T21:57:19.691Z,101808.31
2022-11-10T22:02:40.174Z,101817.16
2022-11-10T22:08:07.669Z,101821.56
2022-11-10T22:13:46.384Z,101820.91
2022-11-10T22:19:08.898Z,101808.34
2022-11-10T22:24:29.435Z,101802.09
2022-11-10T22:29:49.256Z,101803.81
2022-11-10T22:35:29.349Z,101804.41
2022-11-10T22:41:07.925Z,101801.31
2022-11-10T22:46:36.573Z,101800.31
2022-11-10T22:52:01.835Z,101799.06
2022-11-10T22:57:22.055Z,101809.50
2022-11-10T23:02:42.243Z,101804.09
2022-11-10T23:08:07.845Z,101802.38
2022-11-10T23:13:34.787Z,101812.94
2022-11-10T23:19:01.887Z,101822.38
2022-11-10T23:24:24.584Z,101830.53
2022-11-10T23:29:44.482Z,101843.94
2022-11-10T23:35:04.965Z,101842.22
2022-11-10T23:40:25.979Z,101839.94
2022-11-10T23:46:05.859Z,101832.97
2022-11-10T23:51:26.370Z,101829.25
2022-11-10T23:56:46.397Z,101840.78
